Umiujaq Airport
CYMU : now visible

Airfield :











YOU CAN JOIN US ON...

 
LOGIN :

Register | Disclaimer

   EN    FR    IT 

 









Legend :    VFR   Marginal VFR   IFR   Intensive IFR   Very Intensive IFR
Visi :
Ceiling :
>= 8 km
>= 3000ft
5 to 8 km
1000 to 3000 ft
1500m to 5 km
500 to 1000 ft
800 to 1500m
200 to 500 ft
< 800m
< 200 ft
Symbols :   Thunderstorms  Fog  Heavy snow  Heavy precipitations  Wind > 20 kt






- Airport Elevation : 250 ft
- IATA code : YUD


CYMU - Umiujaq

CURRENT METAR :
  • 041900Z 32005KT 260V330 15SM FEW028 FEW350 19/10 A3015 RMK CU1CI1 CU TR SLP215 DENSITY ALT 600FT

EXPIRED METARs :
  • 041800Z 29005KT 260V340 15SM FEW026 FEW080 FEW350 19/12 A3016 RMK CU1AC1CI1 CU TR AC TR SLP218 DENSITY ALT 500FT
  • 041700Z 29005KT 15SM FEW024 FEW350 17/11 A3018 RMK CU1CI1 CU TR SLP223 DENSITY ALT 300FT

TAF N/A
CZUL FIR / North America



MET'MAP, your aeronautical weather chart ! - Copyright ORBIFLY December 2007 - Disclaimer

ORBIFLY MET'MAP TEAM :

Programming & Development : Alexandra Zaïnal
Concept & original design : Baudouin d'Aumeries
Assistance for programming : Marc-Olivier Méhu
Technical & hardware support : Manuel Goepfert

Contact : metmap@orbifly.com




SOURCES & CREDITS :

   NOAA       Earth
Advisory